sensor_id;sensor_type;location;lat;lon;timestamp;P1;durP1;ratioP1;P2;durP2;ratioP2
5965;SDS011;3009;43.224;27.976;2023-01-08T00:01:09;24.53;;;12.73;;
5965;SDS011;3009;43.224;27.976;2023-01-08T00:03:38;17.17;;;12.27;;
5965;SDS011;3009;43.224;27.976;2023-01-08T00:06:09;21.20;;;11.33;;
5965;SDS011;3009;43.224;27.976;2023-01-08T00:08:38;15.50;;;10.10;;
5965;SDS011;3009;43.224;27.976;2023-01-08T00:11:07;17.70;;;11.60;;
5965;SDS011;3009;43.224;27.976;2023-01-08T00:13:35;17.10;;;12.47;;
5965;SDS011;3009;43.224;27.976;2023-01-08T00:16:06;20.73;;;13.03;;
5965;SDS011;3009;43.224;27.976;2023-01-08T00:18:35;18.43;;;11.20;;
5965;SDS011;3009;43.224;27.976;2023-01-08T00:21:03;14.87;;;12.03;;
5965;SDS011;3009;43.224;27.976;2023-01-08T00:23:32;21.47;;;11.67;;
5965;SDS011;3009;43.224;27.976;2023-01-08T00:26:02;13.10;;;10.50;;
5965;SDS011;3009;43.224;27.976;2023-01-08T00:28:30;26.73;;;13.20;;
5965;SDS011;3009;43.224;27.976;2023-01-08T00:30:59;22.00;;;12.97;;
5965;SDS011;3009;43.224;27.976;2023-01-08T00:33:31;14.80;;;11.10;;
5965;SDS011;3009;43.224;27.976;2023-01-08T00:35:59;12.97;;;10.30;;
5965;SDS011;3009;43.224;27.976;2023-01-08T00:38:28;19.60;;;11.07;;
5965;SDS011;3009;43.224;27.976;2023-01-08T00:40:56;19.37;;;13.07;;
5965;SDS011;3009;43.224;27.976;2023-01-08T00:43:24;23.40;;;12.80;;
5965;SDS011;3009;43.224;27.976;2023-01-08T00:45:52;15.10;;;10.87;;
5965;SDS011;3009;43.224;27.976;2023-01-08T00:48:21;16.63;;;11.27;;
5965;SDS011;3009;43.224;27.976;2023-01-08T00:50:52;20.03;;;12.60;;
5965;SDS011;3009;43.224;27.976;2023-01-08T00:53:20;15.27;;;10.57;;
5965;SDS011;3009;43.224;27.976;2023-01-08T00:55:49;16.20;;;12.77;;
5965;SDS011;3009;43.224;27.976;2023-01-08T00:58:17;23.30;;;13.93;;
5965;SDS011;3009;43.224;27.976;2023-01-08T01:00:45;19.80;;;13.60;;
5965;SDS011;3009;43.224;27.976;2023-01-08T01:03:14;17.60;;;13.40;;
5965;SDS011;3009;43.224;27.976;2023-01-08T01:05:42;21.90;;;12.40;;
5965;SDS011;3009;43.224;27.976;2023-01-08T01:08:11;18.90;;;12.27;;
5965;SDS011;3009;43.224;27.976;2023-01-08T01:10:39;17.00;;;11.67;;
5965;SDS011;3009;43.224;27.976;2023-01-08T01:13:09;17.17;;;10.77;;
5965;SDS011;3009;43.224;27.976;2023-01-08T01:15:38;15.13;;;11.63;;
5965;SDS011;3009;43.224;27.976;2023-01-08T01:18:06;17.47;;;11.60;;
5965;SDS011;3009;43.224;27.976;2023-01-08T01:20:34;19.43;;;12.60;;
5965;SDS011;3009;43.224;27.976;2023-01-08T01:23:03;17.00;;;12.53;;
5965;SDS011;3009;43.224;27.976;2023-01-08T01:25:36;18.93;;;12.40;;
5965;SDS011;3009;43.224;27.976;2023-01-08T01:28:04;17.07;;;11.83;;
5965;SDS011;3009;43.224;27.976;2023-01-08T01:30:32;20.47;;;13.33;;
5965;SDS011;3009;43.224;27.976;2023-01-08T01:33:01;15.73;;;12.17;;
5965;SDS011;3009;43.224;27.976;2023-01-08T01:35:29;19.60;;;12.50;;
5965;SDS011;3009;43.224;27.976;2023-01-08T01:37:57;18.53;;;12.47;;
5965;SDS011;3009;43.224;27.976;2023-01-08T01:40:25;22.03;;;13.00;;
5965;SDS011;3009;43.224;27.976;2023-01-08T01:42:55;24.23;;;15.53;;
5965;SDS011;3009;43.224;27.976;2023-01-08T01:45:24;24.20;;;15.20;;
5965;SDS011;3009;43.224;27.976;2023-01-08T01:47:54;21.97;;;13.23;;
5965;SDS011;3009;43.224;27.976;2023-01-08T01:50:27;26.53;;;13.63;;
5965;SDS011;3009;43.224;27.976;2023-01-08T01:52:58;19.70;;;12.20;;
5965;SDS011;3009;43.224;27.976;2023-01-08T01:55:30;19.73;;;12.93;;
5965;SDS011;3009;43.224;27.976;2023-01-08T01:58:03;21.10;;;13.63;;
5965;SDS011;3009;43.224;27.976;2023-01-08T02:00:35;22.97;;;14.57;;
5965;SDS011;3009;43.224;27.976;2023-01-08T02:03:03;19.13;;;12.20;;
5965;SDS011;3009;43.224;27.976;2023-01-08T02:05:33;25.73;;;14.10;;
5965;SDS011;3009;43.224;27.976;2023-01-08T02:08:10;17.73;;;12.60;;
5965;SDS011;3009;43.224;27.976;2023-01-08T02:10:41;19.90;;;12.47;;
5965;SDS011;3009;43.224;27.976;2023-01-08T02:13:19;15.80;;;12.07;;
5965;SDS011;3009;43.224;27.976;2023-01-08T02:15:51;17.80;;;13.20;;
5965;SDS011;3009;43.224;27.976;2023-01-08T02:18:25;18.50;;;12.70;;
5965;SDS011;3009;43.224;27.976;2023-01-08T02:20:56;20.80;;;13.20;;
5965;SDS011;3009;43.224;27.976;2023-01-08T02:23:29;19.77;;;12.77;;
5965;SDS011;3009;43.224;27.976;2023-01-08T02:26:06;21.20;;;13.70;;
5965;SDS011;3009;43.224;27.976;2023-01-08T02:28:40;19.27;;;12.30;;
5965;SDS011;3009;43.224;27.976;2023-01-08T02:31:12;21.43;;;12.67;;
5965;SDS011;3009;43.224;27.976;2023-01-08T02:33:42;19.93;;;12.00;;
5965;SDS011;3009;43.224;27.976;2023-01-08T02:36:16;17.03;;;11.87;;
5965;SDS011;3009;43.224;27.976;2023-01-08T02:38:55;18.30;;;13.10;;
5965;SDS011;3009;43.224;27.976;2023-01-08T02:41:33;18.47;;;13.27;;
5965;SDS011;3009;43.224;27.976;2023-01-08T02:44:11;21.20;;;12.10;;
5965;SDS011;3009;43.224;27.976;2023-01-08T02:46:46;19.37;;;12.70;;
5965;SDS011;3009;43.224;27.976;2023-01-08T02:49:17;20.10;;;13.50;;
5965;SDS011;3009;43.224;27.976;2023-01-08T02:51:49;21.30;;;13.03;;
5965;SDS011;3009;43.224;27.976;2023-01-08T02:54:21;27.23;;;13.97;;
5965;SDS011;3009;43.224;27.976;2023-01-08T02:56:56;19.50;;;12.73;;
5965;SDS011;3009;43.224;27.976;2023-01-08T02:59:28;17.00;;;13.17;;
5965;SDS011;3009;43.224;27.976;2023-01-08T03:01:59;18.80;;;12.23;;
5965;SDS011;3009;43.224;27.976;2023-01-08T03:04:29;20.10;;;12.87;;
5965;SDS011;3009;43.224;27.976;2023-01-08T03:07:03;18.30;;;13.23;;
5965;SDS011;3009;43.224;27.976;2023-01-08T03:09:31;16.90;;;11.63;;
5965;SDS011;3009;43.224;27.976;2023-01-08T03:12:01;16.67;;;11.50;;
5965;SDS011;3009;43.224;27.976;2023-01-08T03:14:38;15.50;;;11.73;;
5965;SDS011;3009;43.224;27.976;2023-01-08T03:17:13;16.73;;;12.13;;
5965;SDS011;3009;43.224;27.976;2023-01-08T03:19:46;19.20;;;13.30;;
5965;SDS011;3009;43.224;27.976;2023-01-08T03:22:16;18.67;;;13.70;;
5965;SDS011;3009;43.224;27.976;2023-01-08T03:24:46;16.07;;;12.43;;
5965;SDS011;3009;43.224;27.976;2023-01-08T03:27:21;18.50;;;12.57;;
5965;SDS011;3009;43.224;27.976;2023-01-08T03:29:53;18.43;;;13.27;;
5965;SDS011;3009;43.224;27.976;2023-01-08T03:32:24;17.80;;;13.20;;
5965;SDS011;3009;43.224;27.976;2023-01-08T03:34:56;17.27;;;12.90;;
5965;SDS011;3009;43.224;27.976;2023-01-08T03:37:28;17.10;;;12.20;;
5965;SDS011;3009;43.224;27.976;2023-01-08T03:40:02;18.90;;;11.77;;
5965;SDS011;3009;43.224;27.976;2023-01-08T03:42:36;18.50;;;13.33;;
5965;SDS011;3009;43.224;27.976;2023-01-08T03:45:04;16.60;;;12.77;;
5965;SDS011;3009;43.224;27.976;2023-01-08T03:47:33;19.73;;;13.20;;
5965;SDS011;3009;43.224;27.976;2023-01-08T03:50:05;18.30;;;12.30;;
5965;SDS011;3009;43.224;27.976;2023-01-08T03:52:36;18.03;;;12.37;;
5965;SDS011;3009;43.224;27.976;2023-01-08T03:55:04;20.50;;;12.43;;
5965;SDS011;3009;43.224;27.976;2023-01-08T03:57:33;22.37;;;14.37;;
5965;SDS011;3009;43.224;27.976;2023-01-08T04:00:03;22.60;;;13.80;;
5965;SDS011;3009;43.224;27.976;2023-01-08T04:02:32;27.63;;;13.73;;
5965;SDS011;3009;43.224;27.976;2023-01-08T04:05:00;20.40;;;13.10;;
5965;SDS011;3009;43.224;27.976;2023-01-08T04:07:28;22.23;;;13.80;;
5965;SDS011;3009;43.224;27.976;2023-01-08T04:09:56;22.33;;;14.77;;
5965;SDS011;3009;43.224;27.976;2023-01-08T04:12:25;22.50;;;13.60;;
5965;SDS011;3009;43.224;27.976;2023-01-08T04:14:53;19.47;;;14.57;;
5965;SDS011;3009;43.224;27.976;2023-01-08T04:17:22;23.33;;;15.73;;
5965;SDS011;3009;43.224;27.976;2023-01-08T04:19:50;34.73;;;17.37;;
5965;SDS011;3009;43.224;27.976;2023-01-08T04:22:19;22.70;;;16.50;;
5965;SDS011;3009;43.224;27.976;2023-01-08T04:24:47;21.33;;;16.17;;
5965;SDS011;3009;43.224;27.976;2023-01-08T04:27:15;22.93;;;16.20;;
5965;SDS011;3009;43.224;27.976;2023-01-08T04:29:43;23.17;;;16.50;;
5965;SDS011;3009;43.224;27.976;2023-01-08T04:32:11;28.23;;;14.30;;
5965;SDS011;3009;43.224;27.976;2023-01-08T04:34:41;25.07;;;15.53;;
5965;SDS011;3009;43.224;27.976;2023-01-08T04:37:09;22.50;;;14.70;;
5965;SDS011;3009;43.224;27.976;2023-01-08T04:39:37;23.10;;;14.60;;
5965;SDS011;3009;43.224;27.976;2023-01-08T04:42:05;26.50;;;18.70;;
5965;SDS011;3009;43.224;27.976;2023-01-08T04:44:34;22.90;;;16.03;;
5965;SDS011;3009;43.224;27.976;2023-01-08T04:47:02;22.13;;;16.70;;
5965;SDS011;3009;43.224;27.976;2023-01-08T04:49:30;27.47;;;17.70;;
5965;SDS011;3009;43.224;27.976;2023-01-08T04:51:59;22.93;;;16.93;;
5965;SDS011;3009;43.224;27.976;2023-01-08T04:54:27;32.70;;;18.90;;
5965;SDS011;3009;43.224;27.976;2023-01-08T04:56:56;45.20;;;24.80;;
5965;SDS011;3009;43.224;27.976;2023-01-08T04:59:24;40.23;;;24.20;;
5965;SDS011;3009;43.224;27.976;2023-01-08T05:01:52;35.60;;;24.20;;
5965;SDS011;3009;43.224;27.976;2023-01-08T05:04:22;42.30;;;28.87;;
5965;SDS011;3009;43.224;27.976;2023-01-08T05:06:50;47.13;;;32.50;;
5965;SDS011;3009;43.224;27.976;2023-01-08T05:09:20;34.77;;;25.50;;
5965;SDS011;3009;43.224;27.976;2023-01-08T05:11:48;30.20;;;21.07;;
5965;SDS011;3009;43.224;27.976;2023-01-08T05:14:16;23.20;;;16.40;;
5965;SDS011;3009;43.224;27.976;2023-01-08T05:16:44;34.90;;;18.07;;
5965;SDS011;3009;43.224;27.976;2023-01-08T05:19:13;32.80;;;20.37;;
5965;SDS011;3009;43.224;27.976;2023-01-08T05:21:41;28.00;;;18.47;;
5965;SDS011;3009;43.224;27.976;2023-01-08T05:24:09;26.73;;;18.57;;
5965;SDS011;3009;43.224;27.976;2023-01-08T05:26:39;32.50;;;22.53;;
5965;SDS011;3009;43.224;27.976;2023-01-08T05:29:08;34.50;;;23.67;;
5965;SDS011;3009;43.224;27.976;2023-01-08T05:31:36;34.67;;;22.40;;
5965;SDS011;3009;43.224;27.976;2023-01-08T05:34:04;31.37;;;21.67;;
5965;SDS011;3009;43.224;27.976;2023-01-08T05:36:32;31.30;;;19.70;;
5965;SDS011;3009;43.224;27.976;2023-01-08T05:39:00;26.77;;;17.40;;
5965;SDS011;3009;43.224;27.976;2023-01-08T05:41:28;21.37;;;15.90;;
5965;SDS011;3009;43.224;27.976;2023-01-08T05:43:58;21.80;;;15.13;;
5965;SDS011;3009;43.224;27.976;2023-01-08T05:46:26;28.23;;;20.00;;
5965;SDS011;3009;43.224;27.976;2023-01-08T05:48:55;24.53;;;16.37;;
5965;SDS011;3009;43.224;27.976;2023-01-08T05:51:23;27.80;;;18.60;;
5965;SDS011;3009;43.224;27.976;2023-01-08T05:53:52;22.50;;;16.47;;
5965;SDS011;3009;43.224;27.976;2023-01-08T05:56:20;21.50;;;14.43;;
5965;SDS011;3009;43.224;27.976;2023-01-08T05:58:48;23.30;;;16.80;;
5965;SDS011;3009;43.224;27.976;2023-01-08T06:01:18;26.53;;;15.90;;
5965;SDS011;3009;43.224;27.976;2023-01-08T06:03:46;25.07;;;17.33;;
5965;SDS011;3009;43.224;27.976;2023-01-08T06:06:15;23.50;;;16.87;;
5965;SDS011;3009;43.224;27.976;2023-01-08T06:08:43;22.83;;;16.40;;
5965;SDS011;3009;43.224;27.976;2023-01-08T06:11:11;27.70;;;16.23;;
5965;SDS011;3009;43.224;27.976;2023-01-08T06:13:40;21.70;;;15.70;;
5965;SDS011;3009;43.224;27.976;2023-01-08T06:16:10;22.93;;;15.57;;
5965;SDS011;3009;43.224;27.976;2023-01-08T06:18:40;29.73;;;17.70;;
5965;SDS011;3009;43.224;27.976;2023-01-08T06:21:09;25.40;;;15.20;;
5965;SDS011;3009;43.224;27.976;2023-01-08T06:23:38;27.57;;;17.67;;
5965;SDS011;3009;43.224;27.976;2023-01-08T06:26:06;31.77;;;17.57;;
5965;SDS011;3009;43.224;27.976;2023-01-08T06:28:34;25.20;;;17.10;;
5965;SDS011;3009;43.224;27.976;2023-01-08T06:31:03;25.23;;;15.93;;
5965;SDS011;3009;43.224;27.976;2023-01-08T06:33:31;21.50;;;15.00;;
5965;SDS011;3009;43.224;27.976;2023-01-08T06:36:01;24.40;;;15.40;;
5965;SDS011;3009;43.224;27.976;2023-01-08T06:38:31;22.23;;;16.50;;
5965;SDS011;3009;43.224;27.976;2023-01-08T06:41:02;23.10;;;14.60;;
5965;SDS011;3009;43.224;27.976;2023-01-08T06:43:31;22.37;;;15.73;;
5965;SDS011;3009;43.224;27.976;2023-01-08T06:46:02;23.50;;;15.63;;
5965;SDS011;3009;43.224;27.976;2023-01-08T06:48:30;21.60;;;15.63;;
5965;SDS011;3009;43.224;27.976;2023-01-08T06:51:00;23.67;;;16.17;;
5965;SDS011;3009;43.224;27.976;2023-01-08T06:53:29;21.27;;;15.00;;
5965;SDS011;3009;43.224;27.976;2023-01-08T06:55:58;25.33;;;17.80;;
5965;SDS011;3009;43.224;27.976;2023-01-08T06:58:26;19.50;;;15.97;;
5965;SDS011;3009;43.224;27.976;2023-01-08T07:00:55;22.60;;;15.87;;
5965;SDS011;3009;43.224;27.976;2023-01-08T07:03:24;20.80;;;15.70;;
5965;SDS011;3009;43.224;27.976;2023-01-08T07:05:53;21.47;;;13.83;;
5965;SDS011;3009;43.224;27.976;2023-01-08T07:08:23;15.77;;;13.67;;
5965;SDS011;3009;43.224;27.976;2023-01-08T07:10:51;17.90;;;12.83;;
5965;SDS011;3009;43.224;27.976;2023-01-08T07:13:19;20.77;;;14.03;;
5965;SDS011;3009;43.224;27.976;2023-01-08T07:15:49;28.03;;;13.33;;
5965;SDS011;3009;43.224;27.976;2023-01-08T07:18:17;17.17;;;11.87;;
5965;SDS011;3009;43.224;27.976;2023-01-08T07:20:46;13.80;;;10.80;;
5965;SDS011;3009;43.224;27.976;2023-01-08T07:23:15;17.70;;;11.30;;
5965;SDS011;3009;43.224;27.976;2023-01-08T07:25:44;15.33;;;11.13;;
5965;SDS011;3009;43.224;27.976;2023-01-08T07:28:13;14.20;;;11.80;;
5965;SDS011;3009;43.224;27.976;2023-01-08T07:30:43;17.03;;;12.57;;
5965;SDS011;3009;43.224;27.976;2023-01-08T07:33:11;19.33;;;13.40;;
5965;SDS011;3009;43.224;27.976;2023-01-08T07:35:39;16.20;;;11.70;;
5965;SDS011;3009;43.224;27.976;2023-01-08T07:38:08;15.00;;;10.90;;
5965;SDS011;3009;43.224;27.976;2023-01-08T07:40:37;17.23;;;11.40;;
5965;SDS011;3009;43.224;27.976;2023-01-08T07:43:07;21.20;;;12.07;;
5965;SDS011;3009;43.224;27.976;2023-01-08T07:45:37;18.70;;;12.03;;
5965;SDS011;3009;43.224;27.976;2023-01-08T07:48:06;15.73;;;11.63;;
5965;SDS011;3009;43.224;27.976;2023-01-08T07:50:36;18.50;;;12.00;;
5965;SDS011;3009;43.224;27.976;2023-01-08T07:53:06;12.77;;;10.30;;
5965;SDS011;3009;43.224;27.976;2023-01-08T07:55:35;14.80;;;10.20;;
5965;SDS011;3009;43.224;27.976;2023-01-08T07:58:07;14.33;;;9.83;;
5965;SDS011;3009;43.224;27.976;2023-01-08T08:00:36;17.07;;;10.30;;
5965;SDS011;3009;43.224;27.976;2023-01-08T08:03:05;11.87;;;9.80;;
5965;SDS011;3009;43.224;27.976;2023-01-08T08:05:34;12.67;;;9.37;;
5965;SDS011;3009;43.224;27.976;2023-01-08T08:08:06;19.93;;;10.97;;
5965;SDS011;3009;43.224;27.976;2023-01-08T08:10:37;13.43;;;10.77;;
5965;SDS011;3009;43.224;27.976;2023-01-08T08:13:07;13.10;;;9.10;;
5965;SDS011;3009;43.224;27.976;2023-01-08T08:15:36;11.63;;;10.00;;
5965;SDS011;3009;43.224;27.976;2023-01-08T08:18:06;12.27;;;10.17;;
5965;SDS011;3009;43.224;27.976;2023-01-08T08:20:34;20.47;;;10.10;;
5965;SDS011;3009;43.224;27.976;2023-01-08T08:23:03;16.40;;;10.43;;
5965;SDS011;3009;43.224;27.976;2023-01-08T08:25:32;13.20;;;8.13;;
5965;SDS011;3009;43.224;27.976;2023-01-08T08:28:00;12.17;;;9.10;;
5965;SDS011;3009;43.224;27.976;2023-01-08T08:30:31;11.00;;;9.20;;
5965;SDS011;3009;43.224;27.976;2023-01-08T08:33:02;13.13;;;9.43;;
5965;SDS011;3009;43.224;27.976;2023-01-08T08:35:32;12.37;;;8.67;;
5965;SDS011;3009;43.224;27.976;2023-01-08T08:38:01;11.23;;;8.70;;
5965;SDS011;3009;43.224;27.976;2023-01-08T08:40:29;11.70;;;9.27;;
5965;SDS011;3009;43.224;27.976;2023-01-08T08:42:58;14.80;;;10.40;;
5965;SDS011;3009;43.224;27.976;2023-01-08T08:45:27;10.60;;;8.13;;
5965;SDS011;3009;43.224;27.976;2023-01-08T08:47:57;10.20;;;9.10;;
5965;SDS011;3009;43.224;27.976;2023-01-08T08:50:26;10.33;;;8.03;;
5965;SDS011;3009;43.224;27.976;2023-01-08T08:52:57;11.73;;;8.03;;
5965;SDS011;3009;43.224;27.976;2023-01-08T08:55:26;12.30;;;8.67;;
5965;SDS011;3009;43.224;27.976;2023-01-08T08:58:00;14.40;;;10.23;;
5965;SDS011;3009;43.224;27.976;2023-01-08T09:00:29;9.07;;;7.10;;
5965;SDS011;3009;43.224;27.976;2023-01-08T09:02:59;12.60;;;8.17;;
5965;SDS011;3009;43.224;27.976;2023-01-08T09:05:28;18.90;;;8.80;;
5965;SDS011;3009;43.224;27.976;2023-01-08T09:07:56;16.43;;;9.43;;
5965;SDS011;3009;43.224;27.976;2023-01-08T09:10:24;9.43;;;7.80;;
5965;SDS011;3009;43.224;27.976;2023-01-08T09:12:53;10.80;;;8.93;;
5965;SDS011;3009;43.224;27.976;2023-01-08T09:15:21;9.90;;;7.80;;
5965;SDS011;3009;43.224;27.976;2023-01-08T09:17:53;11.70;;;8.80;;
5965;SDS011;3009;43.224;27.976;2023-01-08T09:20:23;12.90;;;9.00;;
5965;SDS011;3009;43.224;27.976;2023-01-08T09:22:53;11.03;;;8.10;;
5965;SDS011;3009;43.224;27.976;2023-01-08T09:28:07;10.30;;;9.27;;
5965;SDS011;3009;43.224;27.976;2023-01-08T09:30:38;17.37;;;10.40;;
5965;SDS011;3009;43.224;27.976;2023-01-08T09:33:07;16.70;;;9.33;;
5965;SDS011;3009;43.224;27.976;2023-01-08T09:35:38;11.40;;;8.87;;
5965;SDS011;3009;43.224;27.976;2023-01-08T09:38:07;14.20;;;9.17;;
5965;SDS011;3009;43.224;27.976;2023-01-08T09:40:37;10.40;;;8.67;;
5965;SDS011;3009;43.224;27.976;2023-01-08T09:43:12;10.07;;;8.60;;
5965;SDS011;3009;43.224;27.976;2023-01-08T09:45:44;14.00;;;10.10;;
5965;SDS011;3009;43.224;27.976;2023-01-08T09:48:18;13.13;;;9.77;;
5965;SDS011;3009;43.224;27.976;2023-01-08T09:50:52;11.57;;;9.00;;
5965;SDS011;3009;43.224;27.976;2023-01-08T09:53:20;11.63;;;9.87;;
5965;SDS011;3009;43.224;27.976;2023-01-08T09:55:51;13.80;;;9.40;;
5965;SDS011;3009;43.224;27.976;2023-01-08T09:58:36;10.97;;;8.80;;
5965;SDS011;3009;43.224;27.976;2023-01-08T10:01:06;12.00;;;7.53;;
5965;SDS011;3009;43.224;27.976;2023-01-08T10:03:39;10.37;;;8.50;;
5965;SDS011;3009;43.224;27.976;2023-01-08T10:06:11;9.57;;;8.00;;
5965;SDS011;3009;43.224;27.976;2023-01-08T10:08:40;11.33;;;9.17;;
5965;SDS011;3009;43.224;27.976;2023-01-08T10:11:12;13.90;;;9.33;;
5965;SDS011;3009;43.224;27.976;2023-01-08T10:13:42;12.97;;;8.60;;
5965;SDS011;3009;43.224;27.976;2023-01-08T10:16:17;13.03;;;9.27;;
5965;SDS011;3009;43.224;27.976;2023-01-08T10:18:51;10.60;;;8.20;;
5965;SDS011;3009;43.224;27.976;2023-01-08T10:21:21;13.03;;;9.03;;
5965;SDS011;3009;43.224;27.976;2023-01-08T10:23:55;12.60;;;9.20;;
5965;SDS011;3009;43.224;27.976;2023-01-08T10:26:24;14.97;;;8.47;;
5965;SDS011;3009;43.224;27.976;2023-01-08T10:31:57;12.10;;;8.77;;
5965;SDS011;3009;43.224;27.976;2023-01-08T10:34:27;14.90;;;8.90;;
5965;SDS011;3009;43.224;27.976;2023-01-08T10:37:12;9.37;;;7.17;;
5965;SDS011;3009;43.224;27.976;2023-01-08T10:39:44;12.73;;;9.10;;
5965;SDS011;3009;43.224;27.976;2023-01-08T10:42:16;8.47;;;7.57;;
5965;SDS011;3009;43.224;27.976;2023-01-08T10:44:57;10.70;;;7.63;;
5965;SDS011;3009;43.224;27.976;2023-01-08T10:47:28;8.97;;;7.23;;
5965;SDS011;3009;43.224;27.976;2023-01-08T10:50:00;7.40;;;6.60;;
5965;SDS011;3009;43.224;27.976;2023-01-08T10:52:32;12.33;;;7.87;;
5965;SDS011;3009;43.224;27.976;2023-01-08T10:55:11;12.23;;;8.63;;
5965;SDS011;3009;43.224;27.976;2023-01-08T10:57:51;12.87;;;7.87;;
5965;SDS011;3009;43.224;27.976;2023-01-08T11:00:22;10.50;;;8.10;;
5965;SDS011;3009;43.224;27.976;2023-01-08T11:02:55;9.87;;;7.47;;
5965;SDS011;3009;43.224;27.976;2023-01-08T11:05:29;9.70;;;8.30;;
5965;SDS011;3009;43.224;27.976;2023-01-08T11:08:00;8.63;;;7.37;;
5965;SDS011;3009;43.224;27.976;2023-01-08T11:10:31;9.47;;;7.10;;
5965;SDS011;3009;43.224;27.976;2023-01-08T11:13:02;8.80;;;7.90;;
5965;SDS011;3009;43.224;27.976;2023-01-08T11:15:33;7.27;;;6.57;;
5965;SDS011;3009;43.224;27.976;2023-01-08T11:18:06;10.70;;;8.33;;
5965;SDS011;3009;43.224;27.976;2023-01-08T11:20:39;9.57;;;7.57;;
5965;SDS011;3009;43.224;27.976;2023-01-08T11:23:13;10.73;;;7.10;;
5965;SDS011;3009;43.224;27.976;2023-01-08T11:25:50;9.00;;;7.23;;
5965;SDS011;3009;43.224;27.976;2023-01-08T11:28:29;14.33;;;8.83;;
5965;SDS011;3009;43.224;27.976;2023-01-08T11:31:10;12.77;;;8.53;;
5965;SDS011;3009;43.224;27.976;2023-01-08T11:33:41;10.23;;;7.40;;
5965;SDS011;3009;43.224;27.976;2023-01-08T11:36:13;12.20;;;8.40;;
5965;SDS011;3009;43.224;27.976;2023-01-08T11:38:49;11.13;;;8.40;;
5965;SDS011;3009;43.224;27.976;2023-01-08T11:41:20;10.77;;;8.53;;
5965;SDS011;3009;43.224;27.976;2023-01-08T11:44:02;9.90;;;7.67;;
5965;SDS011;3009;43.224;27.976;2023-01-08T11:46:43;11.03;;;9.17;;
5965;SDS011;3009;43.224;27.976;2023-01-08T11:49:25;10.00;;;8.27;;
5965;SDS011;3009;43.224;27.976;2023-01-08T11:52:07;13.10;;;8.20;;
5965;SDS011;3009;43.224;27.976;2023-01-08T11:54:51;12.20;;;8.40;;
5965;SDS011;3009;43.224;27.976;2023-01-08T11:57:42;11.73;;;8.00;;
5965;SDS011;3009;43.224;27.976;2023-01-08T12:00:36;13.40;;;9.17;;
5965;SDS011;3009;43.224;27.976;2023-01-08T12:03:15;6.57;;;5.97;;
5965;SDS011;3009;43.224;27.976;2023-01-08T12:05:52;7.60;;;6.37;;
5965;SDS011;3009;43.224;27.976;2023-01-08T12:08:28;6.37;;;5.83;;
5965;SDS011;3009;43.224;27.976;2023-01-08T12:11:08;10.40;;;6.10;;
5965;SDS011;3009;43.224;27.976;2023-01-08T12:13:48;13.90;;;6.53;;
5965;SDS011;3009;43.224;27.976;2023-01-08T12:16:47;10.43;;;5.80;;
5965;SDS011;3009;43.224;27.976;2023-01-08T12:19:30;6.97;;;5.80;;
5965;SDS011;3009;43.224;27.976;2023-01-08T12:22:22;9.50;;;5.43;;
5965;SDS011;3009;43.224;27.976;2023-01-08T12:28:12;12.97;;;6.30;;
5965;SDS011;3009;43.224;27.976;2023-01-08T12:30:50;7.23;;;5.53;;
5965;SDS011;3009;43.224;27.976;2023-01-08T12:33:32;7.30;;;6.60;;
5965;SDS011;3009;43.224;27.976;2023-01-08T12:36:05;7.83;;;5.70;;
5965;SDS011;3009;43.224;27.976;2023-01-08T12:38:38;11.40;;;6.43;;
5965;SDS011;3009;43.224;27.976;2023-01-08T12:41:10;8.23;;;6.10;;
5965;SDS011;3009;43.224;27.976;2023-01-08T12:43:44;7.00;;;6.30;;
5965;SDS011;3009;43.224;27.976;2023-01-08T12:46:17;6.50;;;5.93;;
5965;SDS011;3009;43.224;27.976;2023-01-08T12:48:47;12.60;;;7.50;;
5965;SDS011;3009;43.224;27.976;2023-01-08T12:51:19;9.80;;;6.13;;
5965;SDS011;3009;43.224;27.976;2023-01-08T12:53:57;8.17;;;7.17;;
5965;SDS011;3009;43.224;27.976;2023-01-08T12:56:36;9.83;;;7.47;;
5965;SDS011;3009;43.224;27.976;2023-01-08T12:59:27;8.70;;;6.60;;
5965;SDS011;3009;43.224;27.976;2023-01-08T13:02:06;7.93;;;7.23;;
5965;SDS011;3009;43.224;27.976;2023-01-08T13:04:43;9.60;;;7.77;;
5965;SDS011;3009;43.224;27.976;2023-01-08T13:07:15;9.73;;;7.07;;
5965;SDS011;3009;43.224;27.976;2023-01-08T13:09:52;7.97;;;7.17;;
5965;SDS011;3009;43.224;27.976;2023-01-08T13:12:25;14.57;;;7.07;;
5965;SDS011;3009;43.224;27.976;2023-01-08T13:15:02;10.70;;;7.10;;
5965;SDS011;3009;43.224;27.976;2023-01-08T13:17:31;10.23;;;8.27;;
5965;SDS011;3009;43.224;27.976;2023-01-08T13:20:00;7.53;;;6.60;;
5965;SDS011;3009;43.224;27.976;2023-01-08T13:22:32;11.63;;;8.00;;
5965;SDS011;3009;43.224;27.976;2023-01-08T13:27:54;10.27;;;8.17;;
5965;SDS011;3009;43.224;27.976;2023-01-08T13:36:15;9.03;;;8.10;;
5965;SDS011;3009;43.224;27.976;2023-01-08T13:38:57;9.50;;;8.50;;
5965;SDS011;3009;43.224;27.976;2023-01-08T13:41:55;10.47;;;8.10;;
5965;SDS011;3009;43.224;27.976;2023-01-08T13:44:26;12.37;;;8.47;;
5965;SDS011;3009;43.224;27.976;2023-01-08T13:46:58;11.13;;;8.87;;
5965;SDS011;3009;43.224;27.976;2023-01-08T13:49:30;10.00;;;8.20;;
5965;SDS011;3009;43.224;27.976;2023-01-08T13:52:02;13.20;;;7.67;;
5965;SDS011;3009;43.224;27.976;2023-01-08T13:54:31;10.30;;;8.77;;
5965;SDS011;3009;43.224;27.976;2023-01-08T13:57:05;13.17;;;9.63;;
5965;SDS011;3009;43.224;27.976;2023-01-08T13:59:40;15.63;;;8.30;;
5965;SDS011;3009;43.224;27.976;2023-01-08T14:08:02;12.23;;;7.90;;
5965;SDS011;3009;43.224;27.976;2023-01-08T14:10:30;11.27;;;8.33;;
5965;SDS011;3009;43.224;27.976;2023-01-08T14:13:04;9.40;;;8.30;;
5965;SDS011;3009;43.224;27.976;2023-01-08T14:15:34;7.80;;;6.97;;
5965;SDS011;3009;43.224;27.976;2023-01-08T14:18:06;11.17;;;7.97;;
5965;SDS011;3009;43.224;27.976;2023-01-08T14:20:34;12.10;;;9.17;;
5965;SDS011;3009;43.224;27.976;2023-01-08T14:23:07;11.00;;;9.27;;
5965;SDS011;3009;43.224;27.976;2023-01-08T14:25:38;14.10;;;9.33;;
5965;SDS011;3009;43.224;27.976;2023-01-08T14:28:11;16.90;;;10.90;;
5965;SDS011;3009;43.224;27.976;2023-01-08T14:30:47;19.00;;;11.20;;
5965;SDS011;3009;43.224;27.976;2023-01-08T14:33:18;16.63;;;10.53;;
5965;SDS011;3009;43.224;27.976;2023-01-08T14:35:50;12.67;;;10.57;;
5965;SDS011;3009;43.224;27.976;2023-01-08T14:38:20;17.70;;;10.33;;
5965;SDS011;3009;43.224;27.976;2023-01-08T14:40:49;15.00;;;10.47;;
5965;SDS011;3009;43.224;27.976;2023-01-08T14:43:26;13.93;;;9.90;;
5965;SDS011;3009;43.224;27.976;2023-01-08T14:45:55;13.73;;;10.07;;
5965;SDS011;3009;43.224;27.976;2023-01-08T14:48:26;10.97;;;9.80;;
5965;SDS011;3009;43.224;27.976;2023-01-08T14:51:06;13.47;;;9.67;;
5965;SDS011;3009;43.224;27.976;2023-01-08T14:53:37;18.17;;;12.80;;
5965;SDS011;3009;43.224;27.976;2023-01-08T14:56:10;12.50;;;8.67;;
5965;SDS011;3009;43.224;27.976;2023-01-08T14:58:40;14.10;;;10.23;;
5965;SDS011;3009;43.224;27.976;2023-01-08T15:01:13;16.37;;;10.73;;
5965;SDS011;3009;43.224;27.976;2023-01-08T15:03:45;15.87;;;11.83;;
5965;SDS011;3009;43.224;27.976;2023-01-08T15:06:22;13.83;;;10.87;;
5965;SDS011;3009;43.224;27.976;2023-01-08T15:08:51;16.47;;;11.77;;
5965;SDS011;3009;43.224;27.976;2023-01-08T15:11:20;18.87;;;11.67;;
5965;SDS011;3009;43.224;27.976;2023-01-08T15:13:50;15.13;;;11.13;;
5965;SDS011;3009;43.224;27.976;2023-01-08T15:16:21;12.43;;;10.20;;
5965;SDS011;3009;43.224;27.976;2023-01-08T15:18:59;18.10;;;11.60;;
5965;SDS011;3009;43.224;27.976;2023-01-08T15:21:30;22.17;;;15.50;;
5965;SDS011;3009;43.224;27.976;2023-01-08T15:23:59;20.67;;;12.50;;
5965;SDS011;3009;43.224;27.976;2023-01-08T15:26:29;18.20;;;13.43;;
5965;SDS011;3009;43.224;27.976;2023-01-08T15:28:58;18.63;;;11.77;;